Date,TemperatureHighF,TemperatureAvgF,TemperatureLowF,DewpointHighF,DewpointAvgF,DewpointLowF,HumidityHigh,HumidityAvg,HumidityLow,PressureMaxIn,PressureMinIn,WindSpeedMaxMPH,WindSpeedAvgMPH,GustSpeedMaxMPH,PrecipitationSumIn
2013-1-1,36.1,30.2,18.6,28.0,20.0,8.0,79,66,52,29.91,29.71,5,1,11,0.00
2013-1-2,28.9,18.7,9.8,17.0,9.7,2.0,80,68,58,30.09,29.89,4,1,6,0.00
2013-1-3,24.7,12.9,2.0,11.0,1.8,-5.0,84,63,32,30.13,29.99,3,0,6,0.00
2013-1-4,38.3,25.3,10.9,26.0,18.5,8.0,93,76,58,29.98,29.81,4,1,9,0.00
2013-1-5,41.0,29.5,21.5,27.0,21.8,18.0,89,74,52,30.24,29.84,4,0,7,0.03
2013-1-6,42.3,30.8,22.3,31.0,26.0,19.0,93,83,64,30.22,29.92,2,0,7,0.03
2013-1-7,39.4,30.6,20.9,30.0,24.2,20.0,94,79,50,30.38,29.95,5,0,7,0.00
2013-1-8,45.4,32.2,19.2,31.0,26.3,18.0,95,80,54,30.36,30.25,4,1,9,0.01
2013-1-9,44.0,34.0,21.6,37.0,29.2,21.0,97,83,60,30.39,29.99,3,1,7,0.00
2013-1-10,45.3,39.2,30.4,31.0,26.3,24.0,82,61,46,30.52,30.04,5,1,9,0.00
2013-1-11,38.4,32.4,24.9,36.0,28.4,23.0,98,85,69,30.51,30.20,1,0,2,0.14
2013-1-12,41.8,38.8,35.7,42.0,38.6,35.0,100,99,98,30.21,30.10,1,0,2,0.03
2013-1-13,51.0,45.3,39.3,50.0,45.1,39.0,100,99,95,30.13,29.97,2,0,5,0.01
2013-1-14,59.5,50.6,40.7,53.0,44.4,31.0,99,81,44,30.22,29.84,4,1,8,0.00
2013-1-15,40.7,36.3,31.3,31.0,28.1,26.0,87,73,59,30.29,30.19,3,0,6,0.00
2013-1-16,32.8,31.6,29.3,32.0,30.1,26.0,99,94,77,30.22,29.81,2,0,3,0.00
2013-1-17,39.9,33.2,27.0,34.0,28.5,17.0,99,84,60,30.06,29.82,5,0,8,0.21
2013-1-18,29.0,21.3,15.6,17.0,6.4,-1.0,77,54,35,30.44,30.03,5,1,8,0.00
2013-1-19,46.9,35.5,18.2,33.0,23.8,9.0,80,63,45,30.36,29.87,8,2,12,0.11
2013-1-20,52.5,40.7,27.7,34.0,27.5,12.0,79,61,39,29.90,29.53,12,2,14,0.00
2013-1-21,27.4,23.8,19.0,21.0,12.1,7.0,93,63,43,30.08,29.78,3,0,9,0.00
2013-1-22,23.6,18.8,10.6,20.0,8.9,-1.0,94,68,40,30.07,29.74,4,1,8,0.00
2013-1-23,15.5,9.8,4.9,3.0,-3.8,-8.0,75,55,39,30.14,30.06,5,1,8,0.00
2013-1-24,18.7,9.8,1.4,-3.0,-6.4,-9.0,63,49,32,30.22,30.07,6,1,11,0.00
2013-1-25,23.0,14.8,6.5,13.0,-2.5,-8.0,88,48,29,30.30,30.05,5,0,7,0.00
2013-1-26,23.9,15.8,8.3,13.0,4.7,-4.0,90,65,38,30.23,30.00,3,1,7,0.00
2013-1-27,28.9,19.1,11.1,7.0,4.0,1.0,72,53,34,30.45,30.23,6,1,8,0.00
2013-1-28,30.7,22.6,13.2,26.0,15.7,4.0,96,76,39,30.44,29.99,2,0,3,0.00
2013-1-29,32.7,29.4,24.8,32.0,28.1,24.0,98,94,89,30.18,30.00,1,0,3,0.02
2013-1-30,59.9,47.7,32.0,58.0,47.0,32.0,100,97,91,30.13,29.44,8,1,12,0.25
2013-1-31,60.7,47.2,30.5,59.0,39.4,19.0,98,76,48,29.57,28.95,9,2,16,0.51
2013-2-1,32.4,27.6,20.4,20.0,11.8,5.0,70,52,38,30.07,29.57,8,1,8,0.00
2013-2-2,29.1,23.2,15.1,15.0,9.1,4.0,71,56,42,30.24,30.04,6,1,7,0.00
2013-2-3,27.1,23.7,19.2,23.0,20.3,15.0,93,87,66,30.04,29.72,2,0,3,0.00
2013-2-4,28.9,22.4,17.5,20.0,13.2,10.0,93,69,46,29.93,29.71,6,1,10,0.00
2013-2-5,27.0,23.5,19.0,22.0,15.9,11.0,93,73,61,30.01,29.92,2,0,3,0.00
2013-2-6,37.8,29.0,22.7,27.0,20.3,7.0,95,72,45,30.28,29.91,4,0,6,0.01
2013-2-7,30.0,23.6,15.1,14.0,7.6,4.0,81,52,35,30.51,30.28,4,0,5,0.00
2013-2-8,32.0,27.4,17.2,31.0,24.6,13.0,98,89,66,30.47,29.57,9,2,11,0.00
2013-2-9,22.6,18.2,12.8,21.0,16.2,7.0,96,91,79,30.18,29.53,7,2,13,0.00
2013-2-10,36.5,19.8,3.6,19.0,9.3,0.0,87,66,38,30.39,30.19,4,0,6,0.09
2013-2-11,42.9,31.5,13.5,43.0,29.3,9.0,100,91,76,30.34,29.59,1,0,4,0.23
2013-2-12,42.7,37.1,28.3,39.0,30.2,25.0,99,77,59,29.86,29.59,3,1,8,0.00
2013-2-13,41.3,32.2,22.9,28.0,25.3,20.0,90,77,56,29.85,29.68,2,0,4,0.00
2013-2-14,44.0,34.0,27.0,28.0,24.3,22.0,89,69,42,29.97,29.70,4,0,6,0.00
2013-2-15,51.2,36.1,24.8,36.0,30.4,22.0,97,82,54,29.98,29.88,5,1,7,0.00
2013-2-16,37.3,33.3,29.1,32.0,28.4,19.0,98,83,60,29.93,29.68,4,1,7,0.03
2013-2-17,28.6,21.1,16.0,23.0,11.8,1.0,92,69,44,29.68,29.38,7,2,14,0.00
2013-2-18,31.4,21.2,13.2,7.0,3.5,1.0,59,47,31,30.15,29.69,4,1,10,0.00
2013-2-19,47.5,34.1,17.5,42.0,25.4,6.0,98,72,51,30.16,29.57,4,0,6,0.30
2013-2-20,39.1,31.1,24.3,39.0,21.6,13.0,99,69,49,29.77,29.53,5,1,10,0.00
2013-2-21,33.6,27.1,23.2,18.0,15.2,13.0,74,62,48,30.17,29.76,5,1,10,0.00
2013-2-22,39.1,30.3,21.6,26.0,21.8,17.0,86,72,49,30.36,30.19,5,1,8,0.00
2013-2-23,38.0,32.7,26.5,32.0,29.0,23.0,98,86,74,30.31,29.89,3,0,5,0.08
2013-2-24,34.3,32.6,30.7,34.0,32.2,30.0,99,98,98,29.88,29.67,3,0,5,0.58
2013-2-25,38.9,33.4,28.2,34.0,31.2,28.0,98,91,75,30.22,29.87,2,0,4,0.40
2013-2-26,43.1,34.7,26.5,35.0,29.8,26.0,99,83,58,30.32,30.13,4,0,7,0.06
2013-2-27,41.2,38.4,35.2,41.0,37.6,32.0,99,97,85,30.13,29.55,9,2,12,1.05
2013-2-28,45.1,36.9,32.1,40.0,35.3,31.0,99,94,79,29.62,29.50,2,0,3,0.01
2013-3-1,42.1,36.7,30.8,34.0,31.1,28.0,99,81,63,29.66,29.51,3,0,8,0.00
2013-3-2,41.9,36.4,31.0,31.0,28.7,27.0,86,74,61,29.66,29.60,5,0,7,0.00
2013-3-3,41.6,34.9,31.4,32.0,28.8,26.0,94,79,65,29.62,29.54,3,0,6,0.00
2013-3-4,40.3,33.7,28.1,27.0,25.1,22.0,82,71,57,29.73,29.57,9,1,10,0.00
2013-3-5,44.2,35.4,29.4,33.0,28.1,24.0,95,76,58,30.04,29.73,3,1,6,0.00
2013-3-6,39.0,35.7,32.3,36.0,33.2,31.0,97,90,76,30.07,30.02,15,3,21,0.12
2013-3-7,35.0,31.5,29.5,32.0,30.1,29.0,97,94,82,30.03,29.96,10,2,15,0.05
2013-3-8,36.4,30.9,28.9,35.0,30.2,27.0,99,97,87,30.12,29.92,5,0,6,0.00
2013-3-9,47.4,33.8,25.9,32.0,26.7,22.0,97,77,49,30.33,30.12,4,0,10,0.80
2013-3-10,44.1,33.5,22.6,34.0,29.1,22.0,97,85,64,30.39,30.29,3,0,5,0.03
2013-3-11,52.6,41.9,33.7,41.0,36.9,32.0,97,83,60,30.31,30.12,4,1,6,0.00
2013-3-12,55.1,47.9,40.6,53.0,47.0,40.0,99,96,85,30.14,29.70,4,0,10,0.42
2013-3-13,51.1,42.6,31.9,50.0,32.4,22.0,99,70,37,29.76,29.67,5,1,7,0.00
2013-3-14,34.6,30.3,22.5,26.0,16.7,7.0,78,58,44,29.82,29.70,5,1,11,0.00
2013-3-15,40.3,30.5,19.5,28.0,15.5,8.0,82,56,29,29.86,29.62,5,1,8,0.00
2013-3-16,38.8,33.1,26.6,28.0,17.3,8.0,86,55,29,29.85,29.66,5,1,6,0.00
2013-3-17,38.8,30.4,22.4,19.0,12.6,4.0,81,50,28,30.29,29.85,5,1,10,0.00
2013-3-18,38.3,28.0,16.3,26.0,9.6,2.0,90,49,28,30.44,30.21,4,1,5,0.00
2013-3-19,35.3,31.7,28.2,35.0,31.0,26.0,98,97,91,30.20,29.59,6,1,18,0.53
2013-3-20,38.2,30.0,22.6,27.0,22.7,20.0,96,76,50,29.80,29.69,5,1,8,0.22
2013-3-21,36.3,28.9,21.2,28.0,23.2,18.0,94,80,54,29.81,29.60,3,0,5,0.03
2013-3-22,39.9,32.5,25.8,26.0,21.2,18.0,95,65,44,29.73,29.59,5,1,7,0.04
2013-3-23,42.5,34.6,27.0,26.0,21.7,20.0,81,61,42,29.78,29.63,6,1,8,0.00
2013-3-24,46.7,37.2,28.8,28.0,24.5,21.0,81,62,42,29.80,29.70,5,1,7,0.00
2013-3-25,43.1,36.6,29.3,34.0,30.0,26.0,91,78,60,29.74,29.49,7,1,14,0.00
2013-3-26,48.6,39.8,33.1,31.0,27.2,23.0,82,62,38,29.76,29.51,4,1,6,0.00
2013-3-27,54.0,42.3,28.0,31.0,25.8,22.0,84,55,34,29.84,29.72,6,1,10,0.00
2013-3-28,48.1,41.3,35.0,37.0,33.7,31.0,93,76,53,30.00,29.84,3,0,8,0.00
2013-3-29,58.2,46.9,34.9,37.0,32.7,29.0,87,60,35,30.03,29.94,5,1,12,0.00
2013-3-30,57.2,45.9,33.9,34.0,26.0,17.0,83,51,22,30.08,29.98,4,1,8,0.00
2013-3-31,59.9,44.8,26.6,42.0,29.4,24.0,92,61,26,30.10,29.71,5,1,9,0.01
2013-4-1,62.1,46.8,33.9,48.0,38.3,14.0,98,75,40,29.78,29.48,7,1,9,0.08
2013-4-2,41.1,33.4,26.0,21.0,16.2,12.0,74,50,30,29.94,29.78,6,1,10,0.00
2013-4-3,45.0,35.6,29.1,20.0,15.2,11.0,63,45,26,30.15,29.92,5,2,15,0.00
2013-4-4,55.8,40.7,26.1,28.0,18.6,13.0,72,45,18,30.29,30.04,4,1,7,0.00
2013-4-5,60.8,46.6,36.3,32.0,27.4,22.0,77,51,24,30.04,29.60,3,1,10,0.00
2013-4-6,46.5,37.6,29.1,27.0,12.8,5.0,63,40,19,30.31,29.87,6,1,11,0.00
2013-4-7,55.2,43.4,24.8,41.0,30.1,19.0,87,62,33,30.31,29.99,7,2,15,0.00
2013-4-8,65.4,53.0,40.6,44.0,40.7,34.0,98,67,34,30.06,29.94,4,1,9,0.00
2013-4-9,72.6,57.1,45.7,55.0,45.5,40.0,97,69,39,30.06,29.84,5,1,11,0.01
2013-4-10,66.6,53.1,44.8,51.0,47.2,43.0,98,82,55,29.98,29.82,4,1,6,0.18
2013-4-11,52.9,47.1,38.3,47.0,41.7,29.0,98,84,51,30.11,29.79,6,0,6,0.12
2013-4-12,39.9,38.1,36.6,38.0,36.2,32.0,98,93,74,30.14,29.77,9,2,15,0.54
2013-4-13,53.5,44.2,35.1,40.0,37.2,34.0,98,78,53,29.91,29.74,4,1,8,0.03
2013-4-14,52.6,44.8,36.8,41.0,33.2,27.0,97,66,42,30.20,29.91,5,1,9,0.00
2013-4-15,60.1,45.1,30.0,39.0,33.3,28.0,93,66,37,30.37,30.21,5,1,8,0.00
2013-4-16,64.1,51.0,34.9,52.0,43.1,34.0,98,77,53,30.39,30.04,6,2,14,0.00
2013-4-17,67.9,57.8,45.7,53.0,39.7,31.0,91,55,27,30.29,30.05,6,1,9,0.00
2013-4-18,63.6,50.7,36.0,46.0,35.5,30.0,90,60,35,30.40,30.12,7,1,8,0.00
2013-4-19,73.7,62.6,51.5,63.0,58.3,47.0,99,86,65,30.12,29.63,7,2,11,0.00
2013-4-20,65.4,53.6,43.0,63.0,42.8,27.0,98,70,40,30.20,29.57,6,1,9,0.51
2013-4-21,54.5,42.8,31.5,30.0,24.2,20.0,80,50,28,30.66,30.21,7,1,9,0.00
2013-4-22,51.2,41.0,29.5,37.0,31.1,26.0,95,70,39,30.73,30.57,13,2,17,0.00
2013-4-23,41.5,40.4,38.9,41.0,38.2,32.0,98,92,76,30.57,30.11,5,2,9,0.09
2013-4-24,76.2,55.1,40.5,54.0,45.3,40.0,98,75,28,30.09,29.77,4,1,9,0.01
2013-4-25,65.0,54.8,44.5,53.0,38.0,27.0,96,58,27,30.24,29.81,3,1,9,0.03
2013-4-26,60.9,48.8,36.4,41.0,36.9,30.0,92,66,46,30.40,30.24,11,1,12,0.00
2013-4-27,64.3,50.3,34.3,43.0,37.5,33.0,98,66,34,30.40,30.26,5,1,8,0.00
2013-4-28,72.6,53.5,35.8,42.0,35.7,31.0,96,57,27,30.32,30.19,5,1,7,0.00
2013-4-29,69.9,55.7,43.1,48.0,37.9,28.0,94,56,26,30.26,30.17,4,1,7,0.00
2013-4-30,71.7,55.9,41.1,41.0,31.7,23.0,87,46,18,30.34,30.23,5,1,10,0.00
2013-5-1,70.9,54.3,35.1,41.0,36.2,32.0,91,56,28,30.44,30.34,6,1,9,0.00
2013-5-2,79.5,55.5,40.4,47.0,41.9,38.0,96,66,27,30.46,30.31,8,1,14,0.00
2013-5-3,60.4,49.4,40.3,46.0,41.3,38.0,92,75,55,30.49,30.36,8,1,13,0.00
2013-5-4,60.3,48.1,36.5,47.0,39.3,33.0,98,75,39,30.35,30.28,7,1,13,0.00
2013-5-5,62.0,47.4,34.5,44.0,39.6,34.0,98,77,51,30.31,30.22,7,1,10,0.00
2013-5-6,74.9,53.0,36.3,52.0,44.4,35.0,98,77,38,30.28,30.11,5,1,7,0.00
2013-5-7,79.1,61.6,42.5,59.0,52.2,42.0,98,74,47,30.16,30.06,4,0,6,0.00
2013-5-8,73.1,62.2,52.2,65.0,58.7,51.0,99,89,64,30.16,30.01,6,1,9,0.17
2013-5-9,67.9,60.4,57.0,62.0,59.3,57.0,99,96,76,30.01,29.85,2,0,6,0.96
2013-5-10,80.3,65.9,50.4,61.0,56.7,50.0,100,76,44,29.93,29.85,3,0,5,0.00
2013-5-11,70.4,62.7,57.5,63.0,59.6,55.0,98,89,75,29.89,29.67,5,1,8,0.05
2013-5-12,71.3,60.6,48.7,60.0,53.1,35.0,99,79,49,29.79,29.54,3,0,8,0.07
2013-5-13,59.2,48.7,37.6,37.0,34.0,29.0,88,59,35,30.01,29.80,3,0,7,0.00
2013-5-14,59.1,49.0,37.3,37.0,33.9,29.0,89,59,35,30.03,29.95,8,0,8,0.00
2013-5-15,65.2,50.5,34.0,52.0,41.2,32.0,95,75,36,30.04,29.66,3,0,6,0.02
2013-5-16,82.6,65.5,47.5,52.0,45.8,41.0,99,56,24,29.77,29.61,6,1,8,0.00
2013-5-17,69.4,59.3,49.6,46.0,43.2,38.0,85,57,36,30.19,29.77,6,1,9,0.00
2013-5-18,71.4,59.0,41.9,50.0,45.1,38.0,97,65,31,30.28,30.19,3,0,4,0.00
2013-5-19,71.3,57.5,45.7,55.0,51.0,44.0,98,81,50,30.32,30.19,4,0,6,0.08
2013-5-20,81.3,67.5,55.1,68.0,62.2,55.0,100,84,60,30.18,29.88,3,0,4,0.03
2013-5-21,85.7,64.7,51.3,71.0,60.3,51.0,99,87,57,29.96,29.81,5,1,10,0.40
2013-5-22,70.2,57.3,50.1,65.0,55.6,50.0,99,94,80,30.02,29.85,5,1,8,0.12
2013-5-23,74.0,65.1,54.9,69.0,63.2,55.0,100,94,81,29.89,29.77,2,0,5,0.22
2013-5-24,69.2,61.9,48.4,67.0,61.5,48.0,100,98,91,29.79,29.63,3,0,4,0.57
2013-5-25,50.7,46.8,40.6,50.0,46.4,40.0,99,98,97,29.78,29.69,3,1,5,0.23
2013-5-26,57.9,47.9,39.0,46.0,41.6,38.0,98,81,55,30.09,29.71,5,1,8,0.14
2013-5-27,71.8,56.0,38.3,48.0,42.4,38.0,99,66,30,30.14,30.05,2,0,6,0.00
2013-5-28,76.3,59.9,42.8,55.0,47.8,42.0,97,68,35,30.21,30.12,4,0,7,0.00
2013-5-29,72.0,62.7,57.5,68.0,61.3,55.0,99,95,86,30.16,29.96,3,0,4,1.14
2013-5-30,84.7,72.8,60.3,73.0,68.1,60.0,100,86,67,30.06,29.97,2,0,6,0.00
2013-5-31,92.1,78.0,62.2,73.0,68.2,62.0,100,75,48,30.06,29.91,1,0,4,0.00
2013-6-1,91.2,78.0,63.5,71.0,67.6,62.0,96,73,46,29.95,29.83,4,1,5,0.00
2013-6-2,88.5,76.8,67.4,71.0,67.4,65.0,93,74,49,29.85,29.70,5,1,9,0.00
2013-6-3,76.4,68.4,61.6,70.0,65.3,54.0,98,90,75,29.82,29.72,4,0,4,0.55
2013-6-4,71.8,61.3,49.7,53.0,48.2,43.0,88,63,45,30.06,29.80,3,0,6,0.00
2013-6-5,75.3,61.7,47.3,54.0,49.4,46.0,96,67,41,30.17,30.06,2,0,6,0.00
2013-6-6,74.7,62.7,51.5,56.0,52.6,49.0,93,71,48,30.16,30.07,1,0,3,0.00
2013-6-7,58.8,55.5,53.5,59.0,54.9,52.0,99,98,94,30.07,29.78,7,1,9,2.83
2013-6-8,76.2,61.7,53.1,67.0,58.8,53.0,100,91,71,29.98,29.59,1,0,5,0.63
2013-6-9,78.2,66.4,53.8,63.0,58.2,53.0,99,77,51,30.13,29.98,3,0,6,0.00
2013-6-10,69.3,61.1,53.3,63.0,58.5,52.0,98,91,70,30.17,29.99,3,0,5,0.66
2013-6-11,63.0,58.7,56.5,61.0,58.1,56.0,99,97,90,29.98,29.54,3,0,6,0.72
2013-6-12,68.9,61.3,56.7,59.0,57.1,54.0,100,87,65,29.79,29.53,5,1,6,0.35
2013-6-13,62.5,55.9,50.8,61.0,54.6,50.0,99,95,86,29.80,29.64,4,0,6,1.04
2013-6-14,68.1,58.6,51.1,62.0,55.1,51.0,99,89,70,29.74,29.60,5,1,12,1.36
2013-6-15,77.0,65.6,55.4,56.0,52.8,48.0,94,66,38,29.92,29.74,5,0,6,0.00
2013-6-16,72.9,64.4,50.5,64.0,57.1,49.0,94,78,57,29.92,29.69,2,0,2,0.00
2013-6-17,84.6,69.1,57.6,67.0,61.9,56.0,99,81,47,29.88,29.74,3,0,6,0.27
2013-6-18,76.5,62.8,58.6,67.0,61.1,58.0,100,94,71,29.91,29.83,3,0,9,1.03
2013-6-19,72.6,63.1,55.0,59.0,55.7,51.0,100,79,48,30.12,29.87,5,0,7,0.04
2013-6-20,77.9,64.7,50.1,59.0,54.4,49.0,98,72,44,30.23,30.12,3,0,5,0.00
2013-6-21,81.5,68.7,55.9,69.0,61.7,54.0,93,79,60,30.23,30.16,2,0,3,0.00
2013-6-22,82.3,70.5,59.3,66.0,61.7,57.0,94,75,51,30.19,30.09,2,0,3,0.00
2013-6-23,88.1,75.1,62.5,75.0,66.9,58.0,86,76,61,30.13,29.98,2,0,5,0.00
2013-6-24,90.3,78.6,68.7,76.0,71.8,68.0,98,81,60,30.00,29.84,1,0,4,0.02
2013-6-25,88.6,76.8,66.6,75.0,70.3,66.0,99,82,58,29.89,29.70,2,0,3,0.01
2013-6-26,84.4,75.0,68.6,75.0,70.6,67.0,96,87,67,29.82,29.69,2,0,4,0.00
2013-6-27,70.4,66.0,62.9,68.0,65.0,62.0,99,96,89,29.83,29.72,3,0,4,0.04
2013-6-28,80.6,70.3,62.1,75.0,68.4,62.0,100,94,76,29.72,29.46,4,1,7,0.44
2013-6-29,82.0,74.1,69.7,72.0,69.9,68.0,100,87,68,29.69,29.48,3,0,4,0.00
2013-6-30,83.1,75.2,68.8,76.0,71.4,68.0,98,88,75,29.90,29.69,4,0,4,0.00
2013-7-1,80.9,74.4,70.9,76.0,72.8,70.0,99,94,82,30.05,29.90,2,0,3,0.00
2013-7-2,81.8,74.7,65.1,75.0,71.9,63.0,97,91,80,30.17,30.04,1,0,4,0.00
2013-7-3,85.8,75.6,64.4,77.0,71.1,63.0,99,86,72,30.18,30.11,2,0,4,0.00
2013-7-4,90.1,80.9,72.1,78.0,75.0,72.0,99,83,63,30.17,30.06,2,0,3,0.00
2013-7-5,92.2,82.3,73.7,78.0,75.3,72.0,95,80,61,30.13,30.00,2,0,3,0.00
2013-7-6,89.4,80.0,72.7,77.0,74.4,71.0,97,84,65,30.05,29.94,2,0,4,0.00
2013-7-7,88.6,78.1,71.0,80.0,73.5,68.0,98,86,68,29.99,29.87,1,0,3,0.00
2013-7-8,86.6,76.6,67.9,77.0,73.1,66.0,100,89,70,30.02,29.87,5,0,7,0.00
2013-7-9,73.5,69.1,65.7,70.0,67.2,65.0,99,93,88,30.07,30.01,2,0,4,0.00
2013-7-10,84.0,73.7,66.3,77.0,71.5,66.0,100,93,78,30.04,29.76,2,0,3,0.04
2013-7-11,79.0,73.6,70.1,76.0,72.9,70.0,100,98,86,29.88,29.75,1,0,2,0.55
2013-7-12,73.7,69.2,65.0,70.0,64.1,60.0,100,84,69,30.16,29.89,6,1,8,0.00
2013-7-13,75.6,69.5,64.8,73.0,67.9,62.0,100,95,88,30.27,30.16,2,0,3,0.04
2013-7-14,86.5,76.4,70.0,78.0,73.6,70.0,100,92,69,30.27,30.16,1,0,3,0.04
2013-7-15,89.6,78.4,70.4,80.0,75.0,70.0,100,90,66,30.17,30.06,1,0,3,0.00
2013-7-16,90.6,79.6,68.9,75.0,71.9,68.0,97,79,54,30.13,30.06,4,0,6,0.00
2013-7-17,91.1,80.2,69.5,77.0,73.6,69.0,99,82,57,30.14,29.97,1,0,3,0.00
2013-7-18,91.1,82.4,74.1,80.0,75.6,72.0,95,80,57,29.97,29.89,2,0,4,0.00
2013-7-19,94.4,83.8,73.6,80.0,76.8,73.0,99,81,57,29.91,29.69,2,0,4,0.00
2013-7-20,90.6,81.8,73.6,79.0,76.3,67.0,96,84,65,29.77,29.62,2,0,5,0.00
2013-7-21,84.7,75.5,69.1,72.0,67.6,64.0,94,77,60,29.95,29.78,3,0,5,0.00
2013-7-22,82.5,72.7,65.3,72.0,68.6,65.0,98,87,69,29.97,29.85,6,1,7,0.00
2013-7-23,77.7,72.0,69.5,77.0,71.7,68.0,100,99,94,29.84,29.51,2,0,11,0.38
2013-7-24,81.0,73.7,67.7,77.0,69.7,58.0,100,88,70,29.91,29.55,2,0,5,0.00
2013-7-25,66.8,60.4,58.1,59.0,56.2,51.0,100,87,71,30.07,29.92,2,0,4,0.68
2013-7-26,69.8,63.5,58.5,68.0,62.9,59.0,100,98,93,30.03,29.91,2,0,4,0.81
2013-7-27,80.8,68.5,57.0,72.0,64.9,57.0,100,89,63,30.03,29.96,1,0,2,0.00
2013-7-28,83.9,71.5,64.0,74.0,68.7,64.0,100,91,68,29.98,29.92,6,0,6,0.00
2013-7-29,83.0,71.3,65.0,74.0,69.4,65.0,100,94,75,30.01,29.93,5,0,19,1.23
2013-7-30,79.9,69.2,59.3,67.0,63.3,59.0,100,83,54,30.07,30.00,2,0,3,0.00
2013-7-31,82.0,70.0,59.5,67.0,62.8,59.0,98,79,54,30.11,30.01,3,0,4,0.00
2013-8-1,79.2,67.6,61.2,68.0,64.2,61.0,99,89,66,30.02,29.85,1,0,2,0.00
2013-8-2,80.4,69.8,63.5,70.0,65.6,63.0,100,87,63,29.85,29.77,1,0,4,0.10
2013-8-3,75.9,68.7,62.5,67.0,64.8,62.0,100,88,69,29.84,29.76,2,0,4,0.00
2013-8-4,80.1,67.6,58.1,63.0,59.7,56.0,95,77,53,29.87,29.74,3,0,4,0.00
2013-8-5,75.5,63.6,53.9,58.0,52.2,47.0,96,70,37,30.02,29.87,5,0,6,0.00
2013-8-6,78.9,63.5,48.5,60.0,54.5,48.0,97,75,44,30.12,30.02,2,0,4,0.00
2013-8-7,79.5,66.2,53.2,63.0,56.9,52.0,98,75,43,30.16,30.09,2,0,4,0.00
2013-8-8,79.2,70.3,63.0,73.0,67.8,59.0,100,92,79,30.10,29.98,1,0,3,0.18
2013-8-9,74.7,72.2,70.5,75.0,71.8,70.0,100,99,95,30.00,29.73,1,0,5,1.30
2013-8-10,80.3,71.6,63.4,72.0,64.2,55.0,100,80,51,29.98,29.76,2,0,6,0.00
2013-8-11,78.1,65.2,53.0,63.0,58.0,52.0,98,79,53,30.06,29.98,2,0,4,0.00
2013-8-12,80.0,68.2,58.2,65.0,61.6,58.0,99,81,54,30.00,29.89,3,0,3,0.00
2013-8-13,72.7,66.6,62.1,69.0,64.9,62.0,99,94,79,29.90,29.66,1,0,3,0.00
2013-8-14,73.2,65.3,59.0,63.0,57.4,53.0,99,77,57,29.94,29.64,4,0,7,0.00
2013-8-15,76.5,63.3,52.0,59.0,55.2,51.0,96,77,51,30.09,29.94,3,0,3,0.00
2013-8-16,76.2,64.0,51.8,63.0,57.5,51.0,98,81,54,30.17,30.08,2,0,3,0.00
2013-8-17,79.2,66.5,53.3,64.0,59.6,53.0,98,80,54,30.25,30.17,3,0,5,0.00
2013-8-18,77.9,66.4,57.5,67.0,61.8,57.0,98,86,58,30.24,30.06,1,0,3,0.00
2013-8-19,79.0,68.2,55.6,67.0,62.4,55.0,99,83,58,30.06,29.93,1,0,3,0.00
2013-8-20,83.9,71.9,61.4,70.0,64.9,60.0,97,80,52,30.06,29.95,1,0,2,0.00
2013-8-21,85.7,71.7,59.2,70.0,65.8,59.0,99,83,57,30.11,30.00,2,0,2,0.00
2013-8-22,82.6,73.0,63.0,74.0,69.1,63.0,99,88,70,30.01,29.80,2,0,3,0.00
2013-8-23,78.5,70.8,61.4,70.0,63.3,56.0,98,78,50,30.09,29.79,3,0,9,0.00
2013-8-24,75.5,63.7,54.0,56.0,52.7,47.0,93,70,39,30.31,30.09,4,0,7,0.00
2013-8-25,80.6,64.6,49.4,61.0,55.7,49.0,97,76,46,30.34,30.17,1,0,3,0.00
2013-8-26,77.4,69.2,61.9,69.0,64.2,58.0,92,84,68,30.17,29.85,1,0,3,0.00
2013-8-27,80.4,71.3,64.9,73.0,68.7,64.0,100,92,74,29.86,29.80,3,0,6,0.19
2013-8-28,82.6,70.7,60.8,70.0,65.6,61.0,99,85,60,29.95,29.82,4,0,6,0.00
2013-8-29,66.4,64.0,60.7,65.0,62.6,58.0,99,94,90,30.04,29.92,4,1,7,0.00
2013-8-30,79.4,68.5,60.8,71.0,65.0,59.0,97,89,73,30.00,29.80,2,0,2,0.00
2013-8-31,78.4,72.8,66.7,74.0,71.2,66.0,100,94,86,29.81,29.76,1,0,2,0.01
2013-9-1,75.3,71.3,68.2,75.0,71.2,68.0,100,100,98,29.85,29.77,3,0,5,1.29
2013-9-2,80.2,73.4,68.8,77.0,72.1,69.0,100,96,80,29.83,29.68,7,1,13,0.19
2013-9-3,78.8,71.7,61.8,73.0,69.1,60.0,99,92,75,29.78,29.66,4,1,8,0.03
2013-9-4,79.2,66.9,54.8,64.0,59.7,54.0,99,79,54,29.89,29.78,5,1,11,0.00
2013-9-5,69.2,60.9,48.7,63.0,56.6,48.0,98,87,55,30.11,29.84,4,1,10,0.05
2013-9-6,69.3,54.9,42.1,51.0,46.5,41.0,98,77,40,30.23,30.07,4,0,7,0.00
2013-9-7,78.2,61.4,44.7,60.0,53.2,44.0,98,77,44,30.07,29.83,4,1,8,0.00
2013-9-8,74.7,63.5,48.8,66.0,55.1,43.0,97,76,47,30.06,29.72,8,1,16,0.00
2013-9-9,68.5,55.6,40.9,52.0,47.2,40.0,97,76,45,30.22,30.06,5,1,12,0.00
2013-9-10,76.4,65.3,51.2,71.0,62.9,50.0,97,92,84,30.14,30.01,5,1,12,0.05
2013-9-11,94.5,79.6,67.3,80.0,73.4,67.0,99,83,56,30.04,29.91,4,1,9,0.01
2013-9-12,87.2,76.1,67.9,77.0,71.4,67.0,98,86,66,29.94,29.65,8,2,14,0.70
2013-9-13,79.4,68.5,59.2,70.0,65.4,56.0,98,90,68,29.73,29.54,3,0,14,0.12
2013-9-14,67.3,59.5,51.0,59.0,54.4,50.0,96,83,67,30.03,29.73,3,0,7,0.00
2013-9-15,71.6,57.4,46.0,57.0,51.6,46.0,98,83,52,30.14,30.03,4,0,7,0.01
2013-9-16,66.7,55.8,47.1,59.0,52.0,40.0,97,87,72,30.22,30.00,5,1,10,0.03
2013-9-17,62.2,49.5,38.9,48.0,41.1,36.0,96,75,47,30.40,30.23,9,1,9,0.00
2013-9-18,73.0,54.0,36.9,54.0,46.1,36.0,97,78,39,30.31,30.13,2,1,8,0.00
2013-9-19,80.4,59.9,42.9,61.0,52.7,42.0,97,80,45,30.13,30.01,3,0,5,0.00
2013-9-20,81.7,61.7,45.2,63.0,54.6,44.0,98,81,42,30.07,29.97,2,0,6,0.01
2013-9-21,74.1,64.0,52.8,66.0,60.7,52.0,98,89,69,30.00,29.70,9,2,15,0.00
2013-9-22,70.2,63.1,49.1,67.0,58.4,47.0,97,85,62,29.80,29.57,7,1,14,0.73
2013-9-23,63.9,52.3,43.1,49.0,44.6,41.0,94,76,54,29.98,29.81,6,1,9,0.00
2013-9-24,67.0,52.7,40.5,50.0,44.4,39.0,94,75,49,29.97,29.79,4,1,10,0.00
2013-9-25,69.1,54.7,41.4,56.0,48.6,40.0,97,81,59,29.96,29.85,4,1,9,0.00
2013-9-26,66.9,56.5,50.9,54.0,50.6,48.0,95,82,57,30.10,29.96,4,1,7,0.00
2013-9-27,64.5,56.3,47.1,57.0,52.5,46.0,97,87,72,30.24,30.10,4,0,8,0.00
2013-9-28,71.9,56.0,43.2,60.0,51.1,42.0,98,85,60,30.31,30.23,4,1,7,0.00
2013-9-29,68.7,52.6,42.6,56.0,47.2,42.0,98,84,44,30.25,30.10,6,1,7,0.01
2013-9-30,68.8,54.3,45.4,54.0,50.0,45.0,97,87,55,30.11,29.94,3,0,7,0.00
2013-10-1,75.9,58.0,42.1,59.0,51.5,41.0,98,82,48,29.94,29.82,3,0,6,0.00
2013-10-2,78.6,63.0,47.9,65.0,57.2,47.0,98,83,60,29.93,29.81,7,1,13,0.01
2013-10-3,76.2,61.8,48.2,59.0,53.5,47.0,97,76,43,30.06,29.93,3,0,4,0.00
2013-10-4,63.4,55.9,47.7,59.0,53.9,47.0,97,93,83,30.06,30.01,2,0,4,0.23
2013-10-5,68.6,61.1,56.0,62.0,58.3,55.0,98,91,77,30.10,30.03,3,0,4,0.02
2013-10-6,59.4,56.5,54.6,58.0,55.5,54.0,98,96,93,30.20,30.08,4,1,6,0.49
2013-10-7,75.9,65.0,55.7,71.0,62.8,55.0,98,93,81,30.10,29.80,14,2,21,0.33
2013-10-8,65.4,55.1,42.7,55.0,48.0,42.0,96,78,50,30.35,29.89,8,1,9,0.00
2013-10-9,61.1,49.1,40.1,49.0,43.5,39.0,97,83,52,30.45,30.35,8,1,11,0.01
2013-10-10,62.0,50.9,40.9,55.0,48.0,40.0,97,90,76,30.35,30.16,4,1,9,0.00
2013-10-11,70.0,56.4,49.0,58.0,51.5,47.0,97,85,63,30.16,30.07,5,1,7,0.00
2013-10-12,59.8,53.0,46.0,57.0,51.1,45.0,98,93,85,30.37,30.12,9,1,11,0.00
2013-10-13,59.1,50.8,39.6,51.0,46.7,39.0,97,86,70,30.42,30.35,7,1,10,0.00
2013-10-14,64.7,47.9,31.7,49.0,41.4,31.0,97,81,43,30.39,30.23,4,1,6,0.01
2013-10-15,67.2,55.3,45.3,56.0,50.2,44.0,97,84,64,30.25,30.16,4,1,6,0.00
2013-10-16,61.7,53.9,45.6,56.0,51.7,45.0,97,92,81,30.16,29.89,3,0,5,0.00
2013-10-17,72.3,60.0,49.7,63.0,56.7,49.0,98,90,68,29.90,29.71,7,1,12,0.01
2013-10-18,67.5,60.0,45.2,61.0,52.0,42.0,97,77,51,29.89,29.60,5,2,14,0.03
2013-10-19,66.9,52.7,37.7,49.0,43.7,36.0,96,74,43,29.96,29.73,6,2,12,0.00
2013-10-20,61.3,52.5,43.3,49.0,41.1,33.0,97,69,37,30.00,29.68,7,1,15,0.01
2013-10-21,67.6,50.6,35.1,45.0,40.4,33.0,94,71,41,30.10,29.99,6,1,11,0.00
2013-10-22,67.5,52.0,40.0,54.0,45.9,39.0,97,81,55,29.98,29.69,9,1,13,0.01
2013-10-23,50.8,44.0,34.1,42.0,36.0,33.0,95,75,52,29.78,29.58,2,0,5,0.00
2013-10-24,53.0,43.2,34.5,37.0,31.6,26.0,88,66,38,29.88,29.63,6,1,15,0.00
2013-10-25,48.2,39.5,30.2,36.0,30.2,28.0,92,71,48,30.15,29.88,5,1,11,0.00
2013-10-26,55.0,41.1,26.6,37.0,30.2,25.0,94,69,35,30.15,29.87,9,2,21,0.00
2013-10-27,54.7,46.8,37.9,41.0,35.4,30.0,90,66,46,30.05,29.80,6,1,13,0.01
2013-10-28,58.9,43.8,29.1,37.0,32.5,27.0,93,67,43,30.34,30.05,9,2,15,0.00
2013-10-29,50.0,36.2,27.9,31.0,25.4,21.0,90,68,35,30.43,30.34,5,1,7,0.00
2013-10-30,53.8,38.7,28.3,42.0,34.6,26.0,95,86,64,30.34,30.18,3,0,7,0.01
2013-10-31,62.0,47.6,31.2,59.0,45.5,30.0,97,93,85,30.23,29.78,7,2,13,0.04
2013-11-1,70.2,63.9,58.2,63.0,58.9,54.0,95,84,69,29.77,29.45,18,4,28,0.12
2013-11-2,67.4,55.4,45.3,54.0,46.3,42.0,96,74,40,29.70,29.57,4,1,8,0.00
2013-11-3,50.6,41.2,30.9,47.0,30.3,16.0,90,67,37,30.40,29.70,6,2,12,0.00
2013-11-4,42.3,32.0,22.7,23.0,19.0,14.0,90,61,33,30.69,30.41,4,1,10,0.00
2013-11-5,51.6,36.2,21.9,33.0,27.5,20.0,93,73,44,30.71,30.50,5,1,9,0.00
2013-11-6,61.2,48.9,36.1,50.0,41.4,32.0,89,77,53,30.51,30.03,7,2,17,0.00
2013-11-7,66.2,53.5,40.2,59.0,49.9,33.0,95,87,74,30.03,29.66,9,2,20,0.21
2013-11-8,47.3,38.6,30.2,37.0,28.6,23.0,88,68,52,30.09,29.80,10,2,13,0.00
2013-11-9,44.2,36.2,27.4,30.0,25.7,23.0,85,67,44,30.21,30.03,9,1,10,0.00
2013-11-10,55.9,44.8,38.4,44.0,36.9,30.0,95,75,55,30.02,29.73,7,1,10,0.03
2013-11-11,52.0,44.8,37.7,34.0,30.0,27.0,69,57,40,30.09,29.86,5,2,16,0.00
2013-11-12,47.8,35.3,25.9,39.0,26.0,16.0,92,70,53,30.18,29.88,12,2,14,0.09
2013-11-13,35.8,27.6,22.5,18.0,15.9,12.0,78,63,42,30.29,30.17,7,1,12,0.00
2013-11-14,50.6,37.9,26.5,26.0,22.0,17.0,71,55,36,30.16,30.04,5,2,13,0.00
2013-11-15,61.1,45.0,30.8,34.0,24.2,17.0,79,47,19,30.19,30.09,5,2,14,0.00
2013-11-16,59.9,44.1,32.5,36.0,30.2,24.0,84,63,27,30.30,30.18,3,1,7,0.00
2013-11-17,55.5,45.0,30.4,55.0,41.5,27.0,97,88,69,30.30,29.83,3,0,6,0.03
2013-11-18,65.6,57.9,46.7,61.0,48.7,33.0,97,74,48,29.82,29.52,17,2,17,0.24
2013-11-19,46.7,39.3,30.5,33.0,23.5,17.0,62,54,43,30.26,29.64,8,3,15,0.00
2013-11-20,40.2,30.6,20.2,19.0,16.0,12.0,88,57,32,30.62,30.26,7,2,11,0.00
2013-11-21,47.4,32.6,17.8,30.0,21.8,15.0,91,68,37,30.63,30.37,6,1,8,0.00
2013-11-22,46.3,42.6,37.5,45.0,40.5,31.0,97,92,77,30.36,29.81,2,0,3,0.13
2013-11-23,46.2,39.8,28.5,45.0,28.1,18.0,97,65,40,29.90,29.78,8,2,15,0.00
2013-11-24,28.2,23.3,19.3,21.0,5.7,-4.0,83,49,27,30.19,29.79,15,4,25,0.00
2013-11-25,32.6,24.0,15.6,18.0,5.2,-4.0,64,46,24,30.37,30.20,5,2,10,0.00
2013-11-26,40.4,35.4,29.5,36.0,23.9,18.0,95,65,46,30.32,30.03,5,1,16,0.11
2013-11-27,60.9,50.5,36.3,60.0,49.1,33.0,97,94,88,30.01,29.20,17,4,42,1.76
2013-11-28,36.7,29.6,21.7,33.0,17.9,9.0,87,63,39,30.43,29.46,9,2,22,0.00
2013-11-29,34.0,26.2,18.3,18.0,13.0,4.0,78,59,41,30.74,30.43,5,1,11,0.00
2013-11-30,32.4,23.4,13.4,23.0,14.8,9.0,85,70,54,30.79,30.44,5,1,8,0.00
2013-12-1,35.1,32.6,27.8,34.0,30.6,23.0,96,92,78,30.42,30.00,4,1,6,0.13
2013-12-2,38.9,36.5,35.1,38.0,35.7,34.0,97,96,95,30.00,29.91,3,0,5,0.02
2013-12-3,47.4,37.9,32.6,39.0,34.6,31.0,97,88,63,29.94,29.83,6,1,9,0.00
2013-12-4,44.5,34.3,26.7,33.0,28.9,26.0,96,82,56,30.19,29.94,3,0,9,0.00
2013-12-5,54.5,40.5,29.0,54.0,38.0,27.0,97,91,82,30.20,29.89,5,0,12,0.00
2013-12-6,56.5,48.9,34.0,55.0,46.0,33.0,97,90,75,30.11,29.84,5,1,9,0.32
2013-12-7,39.3,32.7,25.0,33.0,28.1,22.0,96,84,62,30.44,30.05,8,1,11,0.13
2013-12-8,30.5,27.3,21.0,22.0,18.3,15.0,87,69,56,30.59,30.44,4,1,5,0.00
2013-12-9,36.6,31.1,25.5,36.0,29.1,16.0,97,92,61,30.48,29.89,3,1,6,0.03
2013-12-10,32.0,29.4,21.3,31.0,28.0,19.0,97,94,85,29.99,29.78,2,0,6,0.00
2013-12-11,30.1,23.4,18.4,23.0,19.3,16.0,92,84,73,30.22,30.01,9,2,12,0.00
2013-12-12,23.6,18.8,10.3,18.0,9.1,3.0,90,68,43,30.27,30.07,10,2,18,0.00
2013-12-13,29.6,20.9,11.8,18.0,12.4,7.0,85,70,56,30.37,30.00,7,2,14,0.00
2013-12-14,27.3,14.0,9.8,26.0,6.1,-3.0,95,72,52,30.60,30.14,5,2,10,0.00
2013-12-15,33.7,26.5,20.1,33.0,24.9,18.0,96,93,91,30.11,29.42,11,3,19,0.00
2013-12-16,27.5,21.8,11.4,21.0,13.4,7.0,93,72,47,30.20,29.74,8,1,18,0.00
2013-12-17,18.0,10.9,0.8,16.0,7.8,-2.0,92,87,74,30.28,29.95,7,2,11,0.00
2013-12-18,32.9,23.6,14.7,23.0,19.0,13.0,92,83,62,30.08,29.87,5,2,9,0.00
2013-12-19,42.5,32.1,20.9,27.0,24.2,18.0,89,74,53,30.11,29.95,8,1,16,0.06
2013-12-20,55.1,41.4,30.5,38.0,32.6,27.0,87,72,48,30.11,29.90,6,2,15,0.10
2013-12-21,58.3,48.9,40.2,49.0,43.7,35.0,93,82,71,29.94,29.84,6,2,10,0.00
2013-12-22,63.7,47.2,35.5,60.0,45.2,35.0,96,93,76,30.00,29.76,7,2,14,0.00
2013-12-23,36.7,33.7,32.1,36.0,33.0,31.0,97,97,96,30.07,29.97,5,1,8,0.68
2013-12-24,36.7,31.6,25.8,36.0,24.2,17.0,97,75,53,30.19,30.03,8,1,12,0.00
2013-12-25,25.6,18.2,13.2,15.0,6.5,2.0,85,61,46,30.53,30.19,8,2,13,0.00
2013-12-26,31.2,23.9,12.9,28.0,20.3,9.0,93,86,78,30.49,30.08,2,0,5,0.00
2013-12-27,33.4,26.4,19.8,23.0,20.4,17.0,93,79,62,30.28,30.19,3,1,10,0.01
2013-12-28,46.7,32.3,20.9,30.0,25.1,19.0,91,76,51,30.20,29.98,5,1,14,0.01
2013-12-29,40.7,34.8,27.6,38.0,31.9,25.0,96,89,76,30.02,29.39,8,2,11,1.13
2013-12-30,39.8,31.4,18.6,35.0,23.8,10.0,96,76,46,30.15,29.51,5,1,12,0.01
2013-12-31,25.1,18.2,13.0,14.0,7.8,-2.0,88,65,50,30.18,30.01,6,1,9,0.00
2014-1-1,27.1,20.3,13.3,14.0,9.8,7.0,84,65,48,30.37,30.18,8,1,11,0.00
2014-1-2,19.7,11.8,0.2,16.0,9.0,-3.0,91,88,78,30.35,29.84,10,3,15,0.00